sensor_id;sensor_type;location;lat;lon;timestamp;P1;durP1;ratioP1;P2;durP2;ratioP2
41201;SDS011;26936;50.524;8.684;2023-06-10T00:00:43;10.07;;;8.40;;
41201;SDS011;26936;50.524;8.684;2023-06-10T00:03:09;15.38;;;8.50;;
41201;SDS011;26936;50.524;8.684;2023-06-10T00:05:35;11.90;;;8.32;;
41201;SDS011;26936;50.524;8.684;2023-06-10T00:08:00;10.50;;;8.63;;
41201;SDS011;26936;50.524;8.684;2023-06-10T00:10:32;11.98;;;8.52;;
41201;SDS011;26936;50.524;8.684;2023-06-10T00:13:02;11.13;;;8.50;;
41201;SDS011;26936;50.524;8.684;2023-06-10T00:15:28;9.85;;;8.40;;
41201;SDS011;26936;50.524;8.684;2023-06-10T00:17:54;10.55;;;8.60;;
41201;SDS011;26936;50.524;8.684;2023-06-10T00:20:20;11.40;;;9.00;;
41201;SDS011;26936;50.524;8.684;2023-06-10T00:22:48;11.52;;;8.77;;
41201;SDS011;26936;50.524;8.684;2023-06-10T00:25:14;10.55;;;9.40;;
41201;SDS011;26936;50.524;8.684;2023-06-10T00:27:39;11.73;;;9.07;;
41201;SDS011;26936;50.524;8.684;2023-06-10T00:30:05;13.23;;;9.18;;
41201;SDS011;26936;50.524;8.684;2023-06-10T00:32:32;14.40;;;8.93;;
41201;SDS011;26936;50.524;8.684;2023-06-10T00:34:58;11.20;;;9.25;;
41201;SDS011;26936;50.524;8.684;2023-06-10T00:37:23;10.53;;;8.13;;
41201;SDS011;26936;50.524;8.684;2023-06-10T00:39:48;13.68;;;8.55;;
41201;SDS011;26936;50.524;8.684;2023-06-10T00:42:13;12.27;;;9.80;;
41201;SDS011;26936;50.524;8.684;2023-06-10T00:44:39;10.10;;;8.73;;
41201;SDS011;26936;50.524;8.684;2023-06-10T00:47:04;14.75;;;9.07;;
41201;SDS011;26936;50.524;8.684;2023-06-10T00:49:31;12.60;;;9.02;;
41201;SDS011;26936;50.524;8.684;2023-06-10T00:51:56;11.25;;;8.68;;
41201;SDS011;26936;50.524;8.684;2023-06-10T00:54:23;14.82;;;9.45;;
41201;SDS011;26936;50.524;8.684;2023-06-10T00:56:48;9.82;;;8.02;;
41201;SDS011;26936;50.524;8.684;2023-06-10T00:59:14;12.57;;;9.05;;
41201;SDS011;26936;50.524;8.684;2023-06-10T01:01:40;14.85;;;8.82;;
41201;SDS011;26936;50.524;8.684;2023-06-10T01:04:08;13.25;;;9.07;;
41201;SDS011;26936;50.524;8.684;2023-06-10T01:06:43;13.52;;;8.73;;
41201;SDS011;26936;50.524;8.684;2023-06-10T01:11:46;12.60;;;9.25;;
41201;SDS011;26936;50.524;8.684;2023-06-10T01:14:14;10.90;;;9.05;;
41201;SDS011;26936;50.524;8.684;2023-06-10T01:16:41;11.35;;;9.73;;
41201;SDS011;26936;50.524;8.684;2023-06-10T01:19:10;12.18;;;8.93;;
41201;SDS011;26936;50.524;8.684;2023-06-10T01:21:37;11.40;;;9.27;;
41201;SDS011;26936;50.524;8.684;2023-06-10T01:24:04;11.65;;;8.65;;
41201;SDS011;26936;50.524;8.684;2023-06-10T01:26:33;13.40;;;9.68;;
41201;SDS011;26936;50.524;8.684;2023-06-10T01:31:49;12.45;;;9.43;;
41201;SDS011;26936;50.524;8.684;2023-06-10T01:34:20;11.32;;;9.05;;
41201;SDS011;26936;50.524;8.684;2023-06-10T01:36:48;12.43;;;9.38;;
41201;SDS011;26936;50.524;8.684;2023-06-10T01:39:15;12.02;;;8.88;;
41201;SDS011;26936;50.524;8.684;2023-06-10T01:41:42;11.95;;;8.45;;
41201;SDS011;26936;50.524;8.684;2023-06-10T01:44:08;11.48;;;8.43;;
41201;SDS011;26936;50.524;8.684;2023-06-10T01:46:34;13.15;;;9.73;;
41201;SDS011;26936;50.524;8.684;2023-06-10T01:48:59;12.25;;;10.32;;
41201;SDS011;26936;50.524;8.684;2023-06-10T01:51:25;13.43;;;9.75;;
41201;SDS011;26936;50.524;8.684;2023-06-10T01:53:50;11.38;;;9.27;;
41201;SDS011;26936;50.524;8.684;2023-06-10T01:56:15;10.93;;;9.13;;
41201;SDS011;26936;50.524;8.684;2023-06-10T01:58:44;12.00;;;9.27;;
41201;SDS011;26936;50.524;8.684;2023-06-10T02:01:09;10.90;;;8.85;;
41201;SDS011;26936;50.524;8.684;2023-06-10T02:03:34;11.65;;;9.32;;
41201;SDS011;26936;50.524;8.684;2023-06-10T02:06:00;11.57;;;9.90;;
41201;SDS011;26936;50.524;8.684;2023-06-10T02:08:25;12.43;;;10.73;;
41201;SDS011;26936;50.524;8.684;2023-06-10T02:10:52;13.98;;;9.93;;
41201;SDS011;26936;50.524;8.684;2023-06-10T02:13:17;11.93;;;8.63;;
41201;SDS011;26936;50.524;8.684;2023-06-10T02:15:43;13.27;;;9.27;;
41201;SDS011;26936;50.524;8.684;2023-06-10T02:18:08;12.87;;;9.87;;
41201;SDS011;26936;50.524;8.684;2023-06-10T02:20:34;14.27;;;10.32;;
41201;SDS011;26936;50.524;8.684;2023-06-10T02:22:59;12.98;;;10.07;;
41201;SDS011;26936;50.524;8.684;2023-06-10T02:25:25;11.93;;;9.70;;
41201;SDS011;26936;50.524;8.684;2023-06-10T02:27:50;10.97;;;8.73;;
41201;SDS011;26936;50.524;8.684;2023-06-10T02:30:15;13.30;;;9.30;;
41201;SDS011;26936;50.524;8.684;2023-06-10T02:32:41;12.68;;;9.63;;
41201;SDS011;26936;50.524;8.684;2023-06-10T02:35:06;13.32;;;9.73;;
41201;SDS011;26936;50.524;8.684;2023-06-10T02:37:31;16.90;;;10.20;;
41201;SDS011;26936;50.524;8.684;2023-06-10T02:39:57;10.87;;;9.13;;
41201;SDS011;26936;50.524;8.684;2023-06-10T02:42:22;14.13;;;8.80;;
41201;SDS011;26936;50.524;8.684;2023-06-10T02:44:47;11.50;;;9.67;;
41201;SDS011;26936;50.524;8.684;2023-06-10T02:47:12;12.03;;;9.13;;
41201;SDS011;26936;50.524;8.684;2023-06-10T02:49:38;10.53;;;9.17;;
41201;SDS011;26936;50.524;8.684;2023-06-10T02:52:03;13.60;;;9.30;;
41201;SDS011;26936;50.524;8.684;2023-06-10T02:54:28;12.63;;;9.40;;
41201;SDS011;26936;50.524;8.684;2023-06-10T02:56:54;13.07;;;9.97;;
41201;SDS011;26936;50.524;8.684;2023-06-10T02:59:20;11.90;;;9.98;;
41201;SDS011;26936;50.524;8.684;2023-06-10T03:01:46;12.30;;;9.18;;
41201;SDS011;26936;50.524;8.684;2023-06-10T03:04:12;15.07;;;9.63;;
41201;SDS011;26936;50.524;8.684;2023-06-10T03:06:39;11.15;;;9.40;;
41201;SDS011;26936;50.524;8.684;2023-06-10T03:09:06;11.32;;;9.85;;
41201;SDS011;26936;50.524;8.684;2023-06-10T03:11:32;11.82;;;9.23;;
41201;SDS011;26936;50.524;8.684;2023-06-10T03:13:58;14.82;;;10.13;;
41201;SDS011;26936;50.524;8.684;2023-06-10T03:16:23;13.98;;;9.68;;
41201;SDS011;26936;50.524;8.684;2023-06-10T03:18:50;11.10;;;9.50;;
41201;SDS011;26936;50.524;8.684;2023-06-10T03:21:15;13.25;;;10.50;;
41201;SDS011;26936;50.524;8.684;2023-06-10T03:23:41;16.10;;;10.88;;
41201;SDS011;26936;50.524;8.684;2023-06-10T03:26:06;12.85;;;10.50;;
41201;SDS011;26936;50.524;8.684;2023-06-10T03:28:32;17.17;;;10.10;;
41201;SDS011;26936;50.524;8.684;2023-06-10T03:30:57;12.23;;;9.37;;
41201;SDS011;26936;50.524;8.684;2023-06-10T03:33:23;13.37;;;10.67;;
41201;SDS011;26936;50.524;8.684;2023-06-10T03:35:48;14.23;;;9.82;;
41201;SDS011;26936;50.524;8.684;2023-06-10T03:38:13;11.68;;;9.63;;
41201;SDS011;26936;50.524;8.684;2023-06-10T03:40:39;12.93;;;10.27;;
41201;SDS011;26936;50.524;8.684;2023-06-10T03:43:05;12.57;;;9.52;;
41201;SDS011;26936;50.524;8.684;2023-06-10T03:45:30;14.30;;;10.20;;
41201;SDS011;26936;50.524;8.684;2023-06-10T03:47:57;12.15;;;10.32;;
41201;SDS011;26936;50.524;8.684;2023-06-10T03:50:22;12.18;;;9.95;;
41201;SDS011;26936;50.524;8.684;2023-06-10T03:52:48;14.40;;;10.70;;
41201;SDS011;26936;50.524;8.684;2023-06-10T03:55:13;14.13;;;10.43;;
41201;SDS011;26936;50.524;8.684;2023-06-10T03:57:39;13.60;;;10.05;;
41201;SDS011;26936;50.524;8.684;2023-06-10T04:00:04;15.65;;;10.85;;
41201;SDS011;26936;50.524;8.684;2023-06-10T04:02:36;12.25;;;9.93;;
41201;SDS011;26936;50.524;8.684;2023-06-10T04:05:01;11.48;;;10.02;;
41201;SDS011;26936;50.524;8.684;2023-06-10T04:07:27;14.43;;;10.45;;
41201;SDS011;26936;50.524;8.684;2023-06-10T04:09:53;14.23;;;9.90;;
41201;SDS011;26936;50.524;8.684;2023-06-10T04:12:18;12.23;;;9.40;;
41201;SDS011;26936;50.524;8.684;2023-06-10T04:14:44;11.15;;;9.35;;
41201;SDS011;26936;50.524;8.684;2023-06-10T04:17:09;11.27;;;9.10;;
41201;SDS011;26936;50.524;8.684;2023-06-10T04:19:35;12.40;;;8.90;;
41201;SDS011;26936;50.524;8.684;2023-06-10T04:22:00;11.15;;;9.40;;
41201;SDS011;26936;50.524;8.684;2023-06-10T04:24:27;12.32;;;9.25;;
41201;SDS011;26936;50.524;8.684;2023-06-10T04:26:53;11.15;;;8.65;;
41201;SDS011;26936;50.524;8.684;2023-06-10T04:29:18;10.20;;;8.70;;
41201;SDS011;26936;50.524;8.684;2023-06-10T04:31:43;11.60;;;9.13;;
41201;SDS011;26936;50.524;8.684;2023-06-10T04:34:10;12.98;;;9.23;;
41201;SDS011;26936;50.524;8.684;2023-06-10T04:36:35;9.17;;;8.13;;
41201;SDS011;26936;50.524;8.684;2023-06-10T04:39:01;9.77;;;8.53;;
41201;SDS011;26936;50.524;8.684;2023-06-10T04:41:26;10.27;;;8.57;;
41201;SDS011;26936;50.524;8.684;2023-06-10T04:43:52;10.88;;;9.35;;
41201;SDS011;26936;50.524;8.684;2023-06-10T04:46:17;10.68;;;8.38;;
41201;SDS011;26936;50.524;8.684;2023-06-10T04:48:42;10.83;;;8.63;;
41201;SDS011;26936;50.524;8.684;2023-06-10T04:51:07;11.43;;;8.47;;
41201;SDS011;26936;50.524;8.684;2023-06-10T04:53:33;11.65;;;8.32;;
41201;SDS011;26936;50.524;8.684;2023-06-10T04:55:58;11.83;;;8.80;;
41201;SDS011;26936;50.524;8.684;2023-06-10T04:58:23;9.43;;;8.40;;
41201;SDS011;26936;50.524;8.684;2023-06-10T05:00:49;13.57;;;9.20;;
41201;SDS011;26936;50.524;8.684;2023-06-10T05:03:14;11.00;;;8.25;;
41201;SDS011;26936;50.524;8.684;2023-06-10T05:05:39;16.52;;;9.10;;
41201;SDS011;26936;50.524;8.684;2023-06-10T05:08:05;10.03;;;7.97;;
41201;SDS011;26936;50.524;8.684;2023-06-10T05:10:30;10.03;;;8.00;;
41201;SDS011;26936;50.524;8.684;2023-06-10T05:12:56;9.07;;;7.53;;
41201;SDS011;26936;50.524;8.684;2023-06-10T05:15:23;10.88;;;7.63;;
41201;SDS011;26936;50.524;8.684;2023-06-10T05:17:48;11.50;;;7.27;;
41201;SDS011;26936;50.524;8.684;2023-06-10T05:20:13;9.87;;;7.63;;
41201;SDS011;26936;50.524;8.684;2023-06-10T05:22:40;11.40;;;7.45;;
41201;SDS011;26936;50.524;8.684;2023-06-10T05:25:05;11.57;;;7.28;;
41201;SDS011;26936;50.524;8.684;2023-06-10T05:27:31;9.45;;;7.57;;
41201;SDS011;26936;50.524;8.684;2023-06-10T05:29:56;9.43;;;6.50;;
41201;SDS011;26936;50.524;8.684;2023-06-10T05:32:22;9.00;;;6.87;;
41201;SDS011;26936;50.524;8.684;2023-06-10T05:34:47;7.80;;;6.80;;
41201;SDS011;26936;50.524;8.684;2023-06-10T05:37:12;12.07;;;7.67;;
41201;SDS011;26936;50.524;8.684;2023-06-10T05:39:39;9.88;;;6.50;;
41201;SDS011;26936;50.524;8.684;2023-06-10T05:42:05;8.57;;;6.28;;
41201;SDS011;26936;50.524;8.684;2023-06-10T05:44:31;9.02;;;5.97;;
41201;SDS011;26936;50.524;8.684;2023-06-10T05:46:57;10.02;;;6.05;;
41201;SDS011;26936;50.524;8.684;2023-06-10T05:49:22;8.80;;;5.47;;
41201;SDS011;26936;50.524;8.684;2023-06-10T05:51:47;8.60;;;5.57;;
41201;SDS011;26936;50.524;8.684;2023-06-10T05:54:13;7.27;;;5.27;;
41201;SDS011;26936;50.524;8.684;2023-06-10T05:56:38;6.57;;;5.57;;
41201;SDS011;26936;50.524;8.684;2023-06-10T05:59:03;7.17;;;5.33;;
41201;SDS011;26936;50.524;8.684;2023-06-10T06:01:28;6.20;;;5.40;;
41201;SDS011;26936;50.524;8.684;2023-06-10T06:03:54;8.10;;;5.00;;
41201;SDS011;26936;50.524;8.684;2023-06-10T06:06:19;7.55;;;5.43;;
41201;SDS011;26936;50.524;8.684;2023-06-10T06:08:45;9.90;;;5.43;;
41201;SDS011;26936;50.524;8.684;2023-06-10T06:11:11;8.70;;;5.38;;
41201;SDS011;26936;50.524;8.684;2023-06-10T06:13:36;9.93;;;5.83;;
41201;SDS011;26936;50.524;8.684;2023-06-10T06:16:01;9.13;;;4.67;;
41201;SDS011;26936;50.524;8.684;2023-06-10T06:18:27;7.88;;;5.00;;
41201;SDS011;26936;50.524;8.684;2023-06-10T06:20:52;6.17;;;5.13;;
41201;SDS011;26936;50.524;8.684;2023-06-10T06:23:17;7.07;;;5.03;;
41201;SDS011;26936;50.524;8.684;2023-06-10T06:25:42;8.68;;;5.60;;
41201;SDS011;26936;50.524;8.684;2023-06-10T06:28:09;8.17;;;5.07;;
41201;SDS011;26936;50.524;8.684;2023-06-10T06:30:35;6.80;;;4.53;;
41201;SDS011;26936;50.524;8.684;2023-06-10T06:33:00;7.97;;;4.72;;
41201;SDS011;26936;50.524;8.684;2023-06-10T06:35:26;8.23;;;5.13;;
41201;SDS011;26936;50.524;8.684;2023-06-10T06:37:51;7.60;;;4.53;;
41201;SDS011;26936;50.524;8.684;2023-06-10T06:40:16;8.27;;;5.00;;
41201;SDS011;26936;50.524;8.684;2023-06-10T06:42:42;6.13;;;4.83;;
41201;SDS011;26936;50.524;8.684;2023-06-10T06:45:07;7.03;;;4.83;;
41201;SDS011;26936;50.524;8.684;2023-06-10T06:47:32;6.68;;;4.65;;
41201;SDS011;26936;50.524;8.684;2023-06-10T06:49:58;6.07;;;4.50;;
41201;SDS011;26936;50.524;8.684;2023-06-10T06:52:23;6.40;;;4.80;;
41201;SDS011;26936;50.524;8.684;2023-06-10T06:54:48;8.20;;;4.50;;
41201;SDS011;26936;50.524;8.684;2023-06-10T06:57:14;7.90;;;5.07;;
41201;SDS011;26936;50.524;8.684;2023-06-10T06:59:39;5.65;;;4.55;;
41201;SDS011;26936;50.524;8.684;2023-06-10T07:02:05;5.97;;;4.23;;
41201;SDS011;26936;50.524;8.684;2023-06-10T07:04:30;7.10;;;4.68;;
41201;SDS011;26936;50.524;8.684;2023-06-10T07:06:56;7.80;;;4.20;;
41201;SDS011;26936;50.524;8.684;2023-06-10T07:09:21;7.37;;;4.47;;
41201;SDS011;26936;50.524;8.684;2023-06-10T07:11:46;5.40;;;4.13;;
41201;SDS011;26936;50.524;8.684;2023-06-10T07:14:11;9.82;;;4.40;;
41201;SDS011;26936;50.524;8.684;2023-06-10T07:16:37;5.53;;;4.40;;
41201;SDS011;26936;50.524;8.684;2023-06-10T07:19:02;6.23;;;4.37;;
41201;SDS011;26936;50.524;8.684;2023-06-10T07:21:27;5.47;;;3.87;;
41201;SDS011;26936;50.524;8.684;2023-06-10T07:23:54;7.90;;;4.65;;
41201;SDS011;26936;50.524;8.684;2023-06-10T07:26:21;7.23;;;4.60;;
41201;SDS011;26936;50.524;8.684;2023-06-10T07:28:47;6.63;;;3.95;;
41201;SDS011;26936;50.524;8.684;2023-06-10T07:31:12;6.60;;;4.47;;
41201;SDS011;26936;50.524;8.684;2023-06-10T07:33:37;6.10;;;4.40;;
41201;SDS011;26936;50.524;8.684;2023-06-10T07:36:04;6.90;;;4.45;;
41201;SDS011;26936;50.524;8.684;2023-06-10T07:38:30;6.07;;;4.10;;
41201;SDS011;26936;50.524;8.684;2023-06-10T07:40:55;9.13;;;5.10;;
41201;SDS011;26936;50.524;8.684;2023-06-10T07:43:20;5.63;;;4.20;;
41201;SDS011;26936;50.524;8.684;2023-06-10T07:45:45;9.43;;;4.33;;
41201;SDS011;26936;50.524;8.684;2023-06-10T07:48:11;9.33;;;4.07;;
41201;SDS011;26936;50.524;8.684;2023-06-10T07:50:36;6.23;;;4.20;;
41201;SDS011;26936;50.524;8.684;2023-06-10T07:53:02;8.40;;;5.03;;
41201;SDS011;26936;50.524;8.684;2023-06-10T07:55:28;5.40;;;4.13;;
41201;SDS011;26936;50.524;8.684;2023-06-10T07:57:53;7.93;;;4.50;;
41201;SDS011;26936;50.524;8.684;2023-06-10T08:00:19;5.90;;;4.05;;
41201;SDS011;26936;50.524;8.684;2023-06-10T08:02:45;5.47;;;4.00;;
41201;SDS011;26936;50.524;8.684;2023-06-10T08:05:11;7.95;;;4.28;;
41201;SDS011;26936;50.524;8.684;2023-06-10T08:07:36;8.63;;;4.68;;
41201;SDS011;26936;50.524;8.684;2023-06-10T08:10:02;7.50;;;4.05;;
41201;SDS011;26936;50.524;8.684;2023-06-10T08:12:29;6.25;;;4.22;;
41201;SDS011;26936;50.524;8.684;2023-06-10T08:14:54;5.40;;;4.32;;
41201;SDS011;26936;50.524;8.684;2023-06-10T08:17:20;6.35;;;4.15;;
41201;SDS011;26936;50.524;8.684;2023-06-10T08:19:45;5.82;;;4.07;;
41201;SDS011;26936;50.524;8.684;2023-06-10T08:22:10;5.27;;;4.10;;
41201;SDS011;26936;50.524;8.684;2023-06-10T08:24:36;6.07;;;4.10;;
41201;SDS011;26936;50.524;8.684;2023-06-10T08:27:01;7.73;;;4.47;;
41201;SDS011;26936;50.524;8.684;2023-06-10T08:29:26;8.80;;;4.50;;
41201;SDS011;26936;50.524;8.684;2023-06-10T08:31:51;6.77;;;4.50;;
41201;SDS011;26936;50.524;8.684;2023-06-10T08:34:17;5.32;;;4.28;;
41201;SDS011;26936;50.524;8.684;2023-06-10T08:36:43;5.75;;;4.22;;
41201;SDS011;26936;50.524;8.684;2023-06-10T08:39:09;6.00;;;4.32;;
41201;SDS011;26936;50.524;8.684;2023-06-10T08:41:35;5.47;;;3.90;;
41201;SDS011;26936;50.524;8.684;2023-06-10T08:44:13;7.95;;;4.25;;
41201;SDS011;26936;50.524;8.684;2023-06-10T08:46:44;7.70;;;4.30;;
41201;SDS011;26936;50.524;8.684;2023-06-10T08:49:10;7.88;;;4.45;;
41201;SDS011;26936;50.524;8.684;2023-06-10T08:51:47;8.27;;;4.35;;
41201;SDS011;26936;50.524;8.684;2023-06-10T08:54:17;5.63;;;4.10;;
41201;SDS011;26936;50.524;8.684;2023-06-10T08:56:47;6.13;;;4.13;;
41201;SDS011;26936;50.524;8.684;2023-06-10T08:59:15;8.02;;;4.20;;
41201;SDS011;26936;50.524;8.684;2023-06-10T09:01:41;6.97;;;4.65;;
41201;SDS011;26936;50.524;8.684;2023-06-10T09:04:08;6.75;;;4.05;;
41201;SDS011;26936;50.524;8.684;2023-06-10T09:06:33;6.13;;;4.22;;
41201;SDS011;26936;50.524;8.684;2023-06-10T09:09:00;6.78;;;4.15;;
41201;SDS011;26936;50.524;8.684;2023-06-10T09:11:26;7.22;;;4.57;;
41201;SDS011;26936;50.524;8.684;2023-06-10T09:13:51;6.90;;;4.15;;
41201;SDS011;26936;50.524;8.684;2023-06-10T09:16:17;6.30;;;4.50;;
41201;SDS011;26936;50.524;8.684;2023-06-10T09:18:42;5.67;;;4.13;;
41201;SDS011;26936;50.524;8.684;2023-06-10T09:21:07;6.82;;;4.35;;
41201;SDS011;26936;50.524;8.684;2023-06-10T09:23:33;10.43;;;4.03;;
41201;SDS011;26936;50.524;8.684;2023-06-10T09:25:58;6.77;;;4.30;;
41201;SDS011;26936;50.524;8.684;2023-06-10T09:28:24;6.00;;;3.95;;
41201;SDS011;26936;50.524;8.684;2023-06-10T09:30:50;7.25;;;3.80;;
41201;SDS011;26936;50.524;8.684;2023-06-10T09:33:27;6.18;;;3.53;;
41201;SDS011;26936;50.524;8.684;2023-06-10T09:35:53;7.88;;;3.80;;
41201;SDS011;26936;50.524;8.684;2023-06-10T09:38:20;5.10;;;4.07;;
41201;SDS011;26936;50.524;8.684;2023-06-10T09:40:53;5.07;;;4.13;;
41201;SDS011;26936;50.524;8.684;2023-06-10T09:43:19;6.63;;;3.92;;
41201;SDS011;26936;50.524;8.684;2023-06-10T09:45:47;7.28;;;4.40;;
41201;SDS011;26936;50.524;8.684;2023-06-10T09:48:13;6.72;;;4.22;;
41201;SDS011;26936;50.524;8.684;2023-06-10T09:50:45;5.53;;;4.00;;
41201;SDS011;26936;50.524;8.684;2023-06-10T09:53:10;4.88;;;4.38;;
41201;SDS011;26936;50.524;8.684;2023-06-10T09:55:39;5.38;;;3.72;;
41201;SDS011;26936;50.524;8.684;2023-06-10T09:58:06;6.03;;;3.88;;
41201;SDS011;26936;50.524;8.684;2023-06-10T10:00:32;5.90;;;3.92;;
41201;SDS011;26936;50.524;8.684;2023-06-10T10:02:58;6.95;;;4.57;;
41201;SDS011;26936;50.524;8.684;2023-06-10T10:05:24;8.23;;;4.38;;
41201;SDS011;26936;50.524;8.684;2023-06-10T10:07:50;7.32;;;3.85;;
41201;SDS011;26936;50.524;8.684;2023-06-10T10:10:17;6.22;;;4.10;;
41201;SDS011;26936;50.524;8.684;2023-06-10T10:12:46;7.10;;;4.10;;
41201;SDS011;26936;50.524;8.684;2023-06-10T10:15:12;5.93;;;3.85;;
41201;SDS011;26936;50.524;8.684;2023-06-10T10:17:39;5.63;;;4.38;;
41201;SDS011;26936;50.524;8.684;2023-06-10T10:20:08;8.15;;;4.18;;
41201;SDS011;26936;50.524;8.684;2023-06-10T10:22:37;6.25;;;3.50;;
41201;SDS011;26936;50.524;8.684;2023-06-10T10:25:49;8.23;;;4.63;;
41201;SDS011;26936;50.524;8.684;2023-06-10T10:30:21;5.55;;;4.35;;
41201;SDS011;26936;50.524;8.684;2023-06-10T10:35:24;6.75;;;3.83;;
41201;SDS011;26936;50.524;8.684;2023-06-10T10:37:51;6.22;;;3.85;;
41201;SDS011;26936;50.524;8.684;2023-06-10T10:40:17;4.70;;;3.72;;
41201;SDS011;26936;50.524;8.684;2023-06-10T10:42:45;9.25;;;3.97;;
41201;SDS011;26936;50.524;8.684;2023-06-10T10:45:12;5.80;;;3.90;;
41201;SDS011;26936;50.524;8.684;2023-06-10T10:47:38;6.93;;;3.85;;
41201;SDS011;26936;50.524;8.684;2023-06-10T10:50:14;8.18;;;3.67;;
41201;SDS011;26936;50.524;8.684;2023-06-10T10:52:46;6.85;;;3.67;;
41201;SDS011;26936;50.524;8.684;2023-06-10T10:55:13;6.32;;;3.92;;
41201;SDS011;26936;50.524;8.684;2023-06-10T10:57:38;5.73;;;3.93;;
41201;SDS011;26936;50.524;8.684;2023-06-10T11:00:04;5.60;;;3.42;;
41201;SDS011;26936;50.524;8.684;2023-06-10T11:02:32;5.22;;;3.15;;
41201;SDS011;26936;50.524;8.684;2023-06-10T11:05:05;8.52;;;3.50;;
41201;SDS011;26936;50.524;8.684;2023-06-10T11:07:32;6.28;;;3.40;;
41201;SDS011;26936;50.524;8.684;2023-06-10T11:09:59;5.50;;;3.80;;
41201;SDS011;26936;50.524;8.684;2023-06-10T11:15:09;5.28;;;3.70;;
41201;SDS011;26936;50.524;8.684;2023-06-10T11:17:34;5.78;;;3.92;;
41201;SDS011;26936;50.524;8.684;2023-06-10T11:20:00;6.17;;;3.23;;
41201;SDS011;26936;50.524;8.684;2023-06-10T11:22:25;7.37;;;3.90;;
41201;SDS011;26936;50.524;8.684;2023-06-10T11:24:50;5.30;;;3.90;;
41201;SDS011;26936;50.524;8.684;2023-06-10T11:27:20;6.55;;;3.88;;
41201;SDS011;26936;50.524;8.684;2023-06-10T11:32:31;7.10;;;3.60;;
41201;SDS011;26936;50.524;8.684;2023-06-10T11:34:58;5.68;;;3.47;;
41201;SDS011;26936;50.524;8.684;2023-06-10T11:37:23;6.95;;;3.70;;
41201;SDS011;26936;50.524;8.684;2023-06-10T11:39:55;5.75;;;3.80;;
41201;SDS011;26936;50.524;8.684;2023-06-10T11:42:24;5.45;;;3.63;;
41201;SDS011;26936;50.524;8.684;2023-06-10T11:44:50;6.78;;;3.45;;
41201;SDS011;26936;50.524;8.684;2023-06-10T11:47:16;5.82;;;4.07;;
41201;SDS011;26936;50.524;8.684;2023-06-10T11:49:43;6.78;;;3.60;;
41201;SDS011;26936;50.524;8.684;2023-06-10T11:52:08;6.32;;;3.58;;
41201;SDS011;26936;50.524;8.684;2023-06-10T11:54:34;5.68;;;3.88;;
41201;SDS011;26936;50.524;8.684;2023-06-10T11:56:59;6.20;;;3.20;;
41201;SDS011;26936;50.524;8.684;2023-06-10T11:59:33;6.35;;;3.30;;
41201;SDS011;26936;50.524;8.684;2023-06-10T12:01:58;5.23;;;3.80;;
41201;SDS011;26936;50.524;8.684;2023-06-10T12:04:24;5.40;;;3.70;;
41201;SDS011;26936;50.524;8.684;2023-06-10T12:06:51;5.22;;;3.58;;
41201;SDS011;26936;50.524;8.684;2023-06-10T12:09:24;6.05;;;3.55;;
41201;SDS011;26936;50.524;8.684;2023-06-10T12:11:57;4.93;;;3.53;;
41201;SDS011;26936;50.524;8.684;2023-06-10T12:17:08;7.38;;;3.70;;
41201;SDS011;26936;50.524;8.684;2023-06-10T12:19:38;5.63;;;3.07;;
41201;SDS011;26936;50.524;8.684;2023-06-10T12:22:03;4.80;;;3.42;;
41201;SDS011;26936;50.524;8.684;2023-06-10T12:24:29;6.43;;;3.15;;
41201;SDS011;26936;50.524;8.684;2023-06-10T12:26:54;6.83;;;3.10;;
41201;SDS011;26936;50.524;8.684;2023-06-10T12:29:21;7.22;;;3.55;;
41201;SDS011;26936;50.524;8.684;2023-06-10T12:32:22;3.58;;;3.10;;
41201;SDS011;26936;50.524;8.684;2023-06-10T12:34:41;6.35;;;3.25;;
41201;SDS011;26936;50.524;8.684;2023-06-10T12:37:09;4.03;;;3.13;;
41201;SDS011;26936;50.524;8.684;2023-06-10T12:39:38;5.20;;;3.17;;
41201;SDS011;26936;50.524;8.684;2023-06-10T12:42:05;5.53;;;3.28;;
41201;SDS011;26936;50.524;8.684;2023-06-10T12:44:34;4.90;;;3.33;;
41201;SDS011;26936;50.524;8.684;2023-06-10T12:47:07;6.18;;;3.40;;
41201;SDS011;26936;50.524;8.684;2023-06-10T12:49:38;3.30;;;2.95;;
41201;SDS011;26936;50.524;8.684;2023-06-10T12:52:03;6.57;;;3.45;;
41201;SDS011;26936;50.524;8.684;2023-06-10T12:54:29;6.25;;;3.67;;
41201;SDS011;26936;50.524;8.684;2023-06-10T12:56:55;6.22;;;3.33;;
41201;SDS011;26936;50.524;8.684;2023-06-10T12:59:20;4.33;;;3.17;;
41201;SDS011;26936;50.524;8.684;2023-06-10T13:01:51;5.50;;;3.20;;
41201;SDS011;26936;50.524;8.684;2023-06-10T13:04:16;4.07;;;3.17;;
41201;SDS011;26936;50.524;8.684;2023-06-10T13:06:43;5.45;;;3.40;;
41201;SDS011;26936;50.524;8.684;2023-06-10T13:09:08;6.43;;;3.03;;
41201;SDS011;26936;50.524;8.684;2023-06-10T13:11:34;4.03;;;2.90;;
41201;SDS011;26936;50.524;8.684;2023-06-10T13:14:00;5.47;;;3.40;;
41201;SDS011;26936;50.524;8.684;2023-06-10T13:16:25;5.97;;;3.65;;
41201;SDS011;26936;50.524;8.684;2023-06-10T13:18:52;5.20;;;3.70;;
41201;SDS011;26936;50.524;8.684;2023-06-10T13:21:18;5.38;;;3.70;;
41201;SDS011;26936;50.524;8.684;2023-06-10T13:23:44;6.80;;;3.90;;
41201;SDS011;26936;50.524;8.684;2023-06-10T13:26:11;5.25;;;3.50;;
41201;SDS011;26936;50.524;8.684;2023-06-10T13:28:36;5.03;;;3.70;;
41201;SDS011;26936;50.524;8.684;2023-06-10T13:31:01;4.17;;;3.30;;
41201;SDS011;26936;50.524;8.684;2023-06-10T13:33:26;7.20;;;3.90;;
41201;SDS011;26936;50.524;8.684;2023-06-10T13:35:52;6.47;;;3.43;;
41201;SDS011;26936;50.524;8.684;2023-06-10T13:38:17;7.63;;;3.53;;
41201;SDS011;26936;50.524;8.684;2023-06-10T13:40:42;6.37;;;3.77;;
41201;SDS011;26936;50.524;8.684;2023-06-10T13:43:07;7.07;;;3.30;;
41201;SDS011;26936;50.524;8.684;2023-06-10T13:45:34;5.68;;;3.05;;
41201;SDS011;26936;50.524;8.684;2023-06-10T13:47:59;3.87;;;3.47;;
41201;SDS011;26936;50.524;8.684;2023-06-10T13:50:26;5.10;;;3.85;;
41201;SDS011;26936;50.524;8.684;2023-06-10T13:52:51;5.47;;;3.23;;
41201;SDS011;26936;50.524;8.684;2023-06-10T13:55:16;6.03;;;3.53;;
41201;SDS011;26936;50.524;8.684;2023-06-10T13:57:43;6.03;;;3.50;;
41201;SDS011;26936;50.524;8.684;2023-06-10T14:00:08;4.97;;;3.60;;
41201;SDS011;26936;50.524;8.684;2023-06-10T14:02:35;6.07;;;3.63;;
41201;SDS011;26936;50.524;8.684;2023-06-10T14:05:00;4.95;;;3.55;;
41201;SDS011;26936;50.524;8.684;2023-06-10T14:07:26;5.68;;;3.50;;
41201;SDS011;26936;50.524;8.684;2023-06-10T14:09:52;6.07;;;3.35;;
41201;SDS011;26936;50.524;8.684;2023-06-10T14:12:17;5.75;;;3.35;;
41201;SDS011;26936;50.524;8.684;2023-06-10T14:14:42;6.37;;;3.50;;
41201;SDS011;26936;50.524;8.684;2023-06-10T14:17:08;5.67;;;3.53;;
41201;SDS011;26936;50.524;8.684;2023-06-10T14:19:33;5.73;;;3.60;;
41201;SDS011;26936;50.524;8.684;2023-06-10T14:21:58;8.23;;;3.40;;
41201;SDS011;26936;50.524;8.684;2023-06-10T14:24:23;8.53;;;3.40;;
41201;SDS011;26936;50.524;8.684;2023-06-10T14:26:49;6.43;;;3.25;;
41201;SDS011;26936;50.524;8.684;2023-06-10T14:29:14;4.32;;;3.10;;
41201;SDS011;26936;50.524;8.684;2023-06-10T14:31:40;3.83;;;3.15;;
41201;SDS011;26936;50.524;8.684;2023-06-10T14:34:05;4.35;;;3.42;;
41201;SDS011;26936;50.524;8.684;2023-06-10T14:36:32;5.05;;;3.55;;
41201;SDS011;26936;50.524;8.684;2023-06-10T14:38:58;4.78;;;3.10;;
41201;SDS011;26936;50.524;8.684;2023-06-10T14:41:23;3.30;;;3.00;;
41201;SDS011;26936;50.524;8.684;2023-06-10T14:43:49;4.82;;;3.35;;
41201;SDS011;26936;50.524;8.684;2023-06-10T14:46:15;5.43;;;3.43;;
41201;SDS011;26936;50.524;8.684;2023-06-10T14:48:40;5.32;;;3.60;;
41201;SDS011;26936;50.524;8.684;2023-06-10T14:51:05;4.63;;;3.20;;
41201;SDS011;26936;50.524;8.684;2023-06-10T14:53:30;4.83;;;3.57;;
41201;SDS011;26936;50.524;8.684;2023-06-10T14:55:56;4.53;;;3.33;;